createdAt,value
2019-03-01T00:00:43.069Z,9.57
2019-03-01T00:01:43.056Z,9.57
2019-03-01T00:02:43.045Z,9.53
2019-03-01T00:03:43.034Z,9.56
2019-03-01T00:04:43.042Z,9.57
2019-03-01T00:05:43.015Z,9.56
2019-03-01T00:06:43.005Z,9.60
2019-03-01T00:07:42.996Z,9.58
2019-03-01T00:08:42.989Z,9.57
2019-03-01T00:09:42.970Z,9.56
2019-03-01T00:10:42.973Z,9.57
2019-03-01T00:11:42.954Z,9.57
2019-03-01T00:12:42.939Z,9.58
2019-03-01T00:13:42.931Z,9.58
2019-03-01T00:14:42.919Z,9.50
2019-03-01T00:15:42.915Z,9.61
2019-03-01T00:16:42.919Z,9.58
2019-03-01T00:17:42.912Z,9.58
2019-03-01T00:18:42.876Z,9.50
2019-03-01T00:19:42.864Z,9.52
2019-03-01T00:20:42.856Z,9.63
2019-03-01T00:21:42.843Z,9.52
2019-03-01T00:22:42.855Z,9.61
2019-03-01T00:23:42.821Z,9.52
2019-03-01T00:24:42.812Z,9.61
2019-03-01T00:25:42.809Z,9.57
2019-03-01T00:26:42.789Z,9.60
2019-03-01T00:27:42.779Z,9.58
2019-03-01T00:28:42.780Z,9.58
2019-03-01T00:29:42.761Z,9.57
2019-03-01T00:30:42.750Z,9.63
2019-03-01T00:31:42.740Z,9.57
2019-03-01T00:32:42.731Z,9.58
2019-03-01T00:33:42.720Z,9.56
2019-03-01T00:34:42.720Z,9.58
2019-03-01T00:35:42.701Z,9.53
2019-03-01T00:36:42.683Z,9.63
2019-03-01T00:37:42.672Z,9.56
2019-03-01T00:38:42.662Z,9.50
2019-03-01T00:39:42.665Z,9.57
2019-03-01T00:40:42.653Z,9.53
2019-03-01T00:41:42.631Z,9.45
2019-03-01T00:42:42.619Z,9.48
2019-03-01T00:43:42.616Z,9.45
2019-03-01T00:44:42.598Z,9.49
2019-03-01T00:45:42.595Z,9.52
2019-03-01T00:46:42.626Z,9.48
2019-03-01T00:47:42.569Z,9.58
2019-03-01T00:48:42.555Z,9.48
2019-03-01T00:49:42.545Z,9.45
2019-03-01T00:50:42.537Z,9.49
2019-03-01T00:51:42.539Z,9.49
2019-03-01T00:52:42.549Z,9.50
2019-03-01T00:53:42.507Z,9.48
2019-03-01T00:54:42.492Z,9.53
2019-03-01T00:55:42.480Z,9.56
2019-03-01T00:56:42.471Z,9.53
2019-03-01T00:57:42.461Z,9.56
2019-03-01T00:58:42.489Z,9.53
2019-03-01T00:59:42.438Z,9.57
2019-03-01T01:00:42.433Z,9.56
2019-03-01T01:01:42.421Z,9.61
2019-03-01T01:02:42.425Z,9.58
2019-03-01T01:03:42.396Z,9.56
2019-03-01T01:04:42.415Z,9.49
2019-03-01T01:05:42.376Z,9.56
2019-03-01T01:06:42.371Z,9.60
2019-03-01T01:07:42.353Z,9.57
2019-03-01T01:08:42.342Z,9.56
2019-03-01T01:09:42.331Z,9.60
2019-03-01T01:10:42.332Z,9.57
2019-03-01T01:11:42.310Z,9.60
2019-03-01T01:12:42.299Z,9.52
2019-03-01T01:13:42.290Z,9.63
2019-03-01T01:14:42.280Z,9.43
2019-03-01T01:15:42.272Z,9.46
2019-03-01T01:16:42.294Z,9.46
2019-03-01T01:17:42.245Z,9.46
2019-03-01T01:18:42.237Z,9.48
2019-03-01T01:19:42.224Z,9.48
2019-03-01T01:20:42.213Z,9.46
2019-03-01T01:21:42.203Z,9.48
2019-03-01T01:22:42.209Z,9.49
2019-03-01T01:23:42.181Z,9.48
2019-03-01T01:24:42.171Z,9.48
2019-03-01T01:25:42.160Z,9.48
2019-03-01T01:26:42.149Z,9.45
2019-03-01T01:27:42.139Z,9.46
2019-03-01T01:28:42.139Z,9.38
2019-03-01T01:29:42.118Z,9.45
2019-03-01T01:30:42.108Z,9.40
2019-03-01T01:31:42.098Z,9.40
2019-03-01T01:32:42.085Z,9.43
2019-03-01T01:33:42.075Z,9.43
2019-03-01T01:34:42.086Z,9.42
2019-03-01T01:35:42.054Z,9.40
2019-03-01T01:36:42.043Z,9.39
2019-03-01T01:37:42.032Z,9.45
2019-03-01T01:38:42.022Z,9.46
2019-03-01T01:39:42.011Z,9.48
2019-03-01T01:40:42.011Z,9.48
2019-03-01T01:41:41.989Z,9.48
2019-03-01T01:42:41.983Z,9.46
2019-03-01T01:43:41.968Z,9.43
2019-03-01T01:44:41.964Z,9.39
2019-03-01T01:45:41.949Z,9.39
2019-03-01T01:46:41.950Z,9.39
2019-03-01T01:47:41.926Z,9.34
2019-03-01T01:48:41.915Z,9.31
2019-03-01T01:49:41.905Z,9.32
2019-03-01T01:50:41.919Z,9.38
2019-03-01T01:51:41.884Z,9.30
2019-03-01T01:52:41.883Z,9.23
2019-03-01T01:53:41.862Z,9.24
2019-03-01T01:54:41.850Z,9.21
2019-03-01T01:55:41.843Z,9.25
2019-03-01T01:56:41.830Z,9.18
2019-03-01T01:57:41.819Z,9.12
2019-03-01T01:58:41.820Z,9.16
2019-03-01T01:59:41.797Z,9.09
2019-03-01T02:00:41.787Z,9.15
2019-03-01T02:01:41.776Z,9.12
2019-03-01T02:02:41.773Z,9.06
2019-03-01T02:03:41.757Z,9.15
2019-03-01T02:04:41.756Z,9.15
2019-03-01T02:05:41.735Z,9.04
2019-03-01T02:06:41.725Z,9.06
2019-03-01T02:07:41.712Z,9.05
2019-03-01T02:08:41.702Z,9.09
2019-03-01T02:09:41.692Z,9.04
2019-03-01T02:10:41.687Z,9.09
2019-03-01T02:11:41.668Z,9.09
2019-03-01T02:12:41.657Z,9.12
2019-03-01T02:13:41.644Z,9.06
2019-03-01T02:14:41.633Z,9.13
2019-03-01T02:15:41.622Z,9.15
2019-03-01T02:16:41.624Z,9.13
2019-03-01T02:17:41.610Z,9.13
2019-03-01T02:18:41.590Z,9.15
2019-03-01T02:19:41.580Z,9.16
2019-03-01T02:20:41.567Z,9.13
2019-03-01T02:21:41.559Z,9.13
2019-03-01T02:22:41.559Z,9.18
2019-03-01T02:23:41.538Z,9.15
2019-03-01T02:24:41.523Z,9.18
2019-03-01T02:25:41.512Z,9.23
2019-03-01T02:26:41.501Z,9.20
2019-03-01T02:27:41.494Z,9.25
2019-03-01T02:28:41.490Z,9.27
2019-03-01T02:29:41.472Z,9.21
2019-03-01T02:30:41.462Z,9.27
2019-03-01T02:31:41.450Z,9.18
2019-03-01T02:32:41.438Z,9.27
2019-03-01T02:33:41.438Z,9.35
2019-03-01T02:34:41.426Z,9.32
2019-03-01T02:35:41.406Z,9.35
2019-03-01T02:36:41.394Z,9.35
2019-03-01T02:37:41.391Z,9.38
2019-03-01T02:38:41.374Z,9.38
2019-03-01T02:39:41.367Z,9.31
2019-03-01T02:40:41.366Z,9.39
2019-03-01T02:41:41.345Z,9.35
2019-03-01T02:42:41.330Z,9.31
2019-03-01T02:43:41.318Z,9.39
2019-03-01T02:44:41.314Z,9.35
2019-03-01T02:45:41.305Z,9.42
2019-03-01T02:46:41.295Z,9.40
2019-03-01T02:47:41.275Z,9.30
2019-03-01T02:48:41.274Z,9.43
2019-03-01T02:49:41.254Z,9.40
2019-03-01T02:50:41.244Z,9.38
2019-03-01T02:51:41.244Z,9.32
2019-03-01T02:52:41.233Z,9.31
2019-03-01T02:53:41.214Z,9.38
2019-03-01T02:54:41.201Z,9.38
2019-03-01T02:55:41.191Z,9.30
2019-03-01T02:56:41.189Z,9.31
2019-03-01T02:57:41.172Z,9.38
2019-03-01T02:58:41.169Z,9.35
2019-03-01T02:59:41.147Z,9.32
2019-03-01T03:00:41.137Z,9.38
2019-03-01T03:01:41.125Z,9.35
2019-03-01T03:02:41.161Z,9.34
2019-03-01T03:03:41.113Z,9.40
2019-03-01T03:04:41.104Z,9.35
2019-03-01T03:05:41.086Z,9.34
2019-03-01T03:06:41.074Z,9.35
2019-03-01T03:07:41.065Z,9.40
2019-03-01T03:08:41.051Z,9.35
2019-03-01T03:09:41.041Z,9.34
2019-03-01T03:10:41.040Z,9.35
2019-03-01T03:11:41.021Z,9.35
2019-03-01T03:12:41.014Z,9.31
2019-03-01T03:13:40.997Z,9.38
2019-03-01T03:14:40.988Z,9.32
2019-03-01T03:15:40.980Z,9.39
2019-03-01T03:16:40.979Z,9.31
2019-03-01T03:17:40.970Z,9.40
2019-03-01T03:18:40.945Z,9.34
2019-03-01T03:19:40.934Z,9.35
2019-03-01T03:20:40.923Z,9.35
2019-03-01T03:21:40.915Z,9.35
2019-03-01T03:22:40.917Z,9.31
2019-03-01T03:23:40.908Z,9.30
2019-03-01T03:24:40.882Z,9.35
2019-03-01T03:25:40.879Z,9.35
2019-03-01T03:26:40.867Z,9.31
2019-03-01T03:27:40.850Z,9.38
2019-03-01T03:28:40.858Z,9.25
2019-03-01T03:29:40.830Z,9.28
2019-03-01T03:30:40.821Z,9.30
2019-03-01T03:31:40.807Z,9.42
2019-03-01T03:32:40.814Z,9.28
2019-03-01T03:33:40.785Z,9.30
2019-03-01T03:34:40.790Z,9.25
2019-03-01T03:35:40.763Z,9.31
2019-03-01T03:36:40.755Z,9.30
2019-03-01T03:37:40.743Z,9.35
2019-03-01T03:38:40.732Z,9.38
2019-03-01T03:39:40.723Z,9.30
2019-03-01T03:40:40.721Z,9.39
2019-03-01T03:41:40.702Z,9.32
2019-03-01T03:42:40.690Z,9.35
2019-03-01T03:43:40.690Z,9.35
2019-03-01T03:44:40.668Z,9.34
2019-03-01T03:45:40.660Z,9.31
2019-03-01T03:46:40.658Z,9.30
2019-03-01T03:47:40.637Z,9.34
2019-03-01T03:48:40.631Z,9.30
2019-03-01T03:49:40.619Z,9.31
2019-03-01T03:50:40.603Z,9.27
2019-03-01T03:51:40.613Z,9.34
2019-03-01T03:52:40.602Z,9.28
2019-03-01T03:53:40.573Z,9.32
2019-03-01T03:54:40.560Z,9.25
2019-03-01T03:55:40.552Z,9.20
2019-03-01T03:56:40.544Z,9.20
2019-03-01T03:57:40.529Z,9.23
2019-03-01T03:58:40.531Z,9.20
2019-03-01T03:59:40.577Z,9.23
2019-03-01T04:00:40.496Z,9.23
2019-03-01T04:01:40.486Z,9.13
2019-03-01T04:02:40.479Z,9.15
2019-03-01T04:03:40.466Z,9.13
2019-03-01T04:04:40.479Z,9.12
2019-03-01T04:05:40.447Z,9.10
2019-03-01T04:06:40.430Z,9.13
2019-03-01T04:07:40.424Z,9.21
2019-03-01T04:08:40.413Z,9.16
2019-03-01T04:09:40.398Z,9.10
2019-03-01T04:10:40.401Z,9.06
2019-03-01T04:11:40.385Z,9.09
2019-03-01T04:12:40.365Z,9.13
2019-03-01T04:13:40.355Z,9.04
2019-03-01T04:14:40.342Z,9.02
2019-03-01T04:15:40.331Z,9.04
2019-03-01T04:16:40.336Z,9.02
2019-03-01T04:17:40.315Z,9.06
2019-03-01T04:18:40.300Z,9.09
2019-03-01T04:19:40.287Z,9.06
2019-03-01T04:20:40.276Z,9.02
2019-03-01T04:21:40.267Z,9.10
2019-03-01T04:22:40.269Z,9.13
2019-03-01T04:23:40.249Z,9.06
2019-03-01T04:24:40.238Z,9.06
2019-03-01T04:25:40.222Z,9.13
2019-03-01T04:26:40.212Z,9.09
2019-03-01T04:27:40.199Z,8.99
2019-03-01T04:28:40.201Z,9.15
2019-03-01T04:29:40.178Z,9.04
2019-03-01T04:30:40.168Z,9.10
2019-03-01T04:31:40.159Z,9.10
2019-03-01T04:32:40.145Z,9.02
2019-03-01T04:33:40.134Z,9.13
2019-03-01T04:34:40.140Z,9.10
2019-03-01T04:35:40.115Z,9.12
2019-03-01T04:36:40.101Z,9.10
2019-03-01T04:37:40.089Z,9.21
2019-03-01T04:38:40.079Z,9.13
2019-03-01T04:39:40.069Z,9.18
2019-03-01T04:40:40.079Z,9.12
2019-03-01T04:41:40.046Z,9.15
2019-03-01T04:42:40.038Z,9.20
2019-03-01T04:43:40.024Z,9.20
2019-03-01T04:44:40.015Z,9.18
2019-03-01T04:45:40.002Z,9.23
2019-03-01T04:46:40.006Z,9.13
2019-03-01T04:47:39.980Z,9.21
2019-03-01T04:48:39.972Z,9.24
2019-03-01T04:49:39.957Z,9.18
2019-03-01T04:50:39.947Z,9.27
2019-03-01T04:51:40.447Z,9.23
2019-03-01T04:52:39.938Z,9.23
2019-03-01T04:53:39.918Z,9.23
2019-03-01T04:54:39.903Z,9.20
2019-03-01T04:55:39.894Z,9.20
2019-03-01T04:56:39.881Z,9.20
2019-03-01T04:57:39.873Z,9.21
2019-03-01T04:58:39.872Z,9.25
2019-03-01T04:59:39.848Z,9.23
2019-03-01T05:00:39.837Z,9.23
2019-03-01T05:01:39.828Z,9.20
2019-03-01T05:02:39.819Z,9.20
2019-03-01T05:03:39.805Z,9.20
2019-03-01T05:04:39.805Z,9.15
2019-03-01T05:05:39.784Z,9.18
2019-03-01T05:06:39.774Z,9.25
2019-03-01T05:07:39.762Z,9.25
2019-03-01T05:08:39.752Z,9.21
2019-03-01T05:09:39.741Z,9.18
2019-03-01T05:10:39.740Z,9.15
2019-03-01T05:11:39.721Z,9.20
2019-03-01T05:12:39.711Z,9.21
2019-03-01T05:13:39.699Z,9.16
2019-03-01T05:14:39.688Z,9.23
2019-03-01T05:15:39.678Z,9.24
2019-03-01T05:16:39.679Z,9.25
2019-03-01T05:17:39.656Z,9.12
2019-03-01T05:18:39.645Z,9.23
2019-03-01T05:19:39.635Z,9.18
2019-03-01T05:20:39.625Z,9.18
2019-03-01T05:21:39.614Z,9.15
2019-03-01T05:22:39.614Z,9.18
2019-03-01T05:23:39.591Z,9.09
2019-03-01T05:24:39.580Z,9.20
2019-03-01T05:25:39.570Z,9.16
2019-03-01T05:26:39.558Z,9.21
2019-03-01T05:27:39.548Z,9.16
2019-03-01T05:28:39.547Z,9.23
2019-03-01T05:29:39.526Z,9.20
2019-03-01T05:30:39.516Z,9.12
2019-03-01T05:31:39.505Z,9.21
2019-03-01T05:32:39.494Z,9.18
2019-03-01T05:33:39.484Z,9.12
2019-03-01T05:34:39.492Z,9.09
2019-03-01T05:35:39.465Z,9.20
2019-03-01T05:36:39.452Z,9.13
2019-03-01T05:37:39.441Z,9.09
2019-03-01T05:38:39.430Z,9.12
2019-03-01T05:39:39.422Z,9.13
2019-03-01T05:40:39.420Z,9.09
2019-03-01T05:41:39.397Z,9.18
2019-03-01T05:42:39.389Z,9.10
2019-03-01T05:43:39.376Z,9.15
2019-03-01T05:44:39.365Z,9.06
2019-03-01T05:45:39.355Z,9.15
2019-03-01T05:46:39.354Z,9.12
2019-03-01T05:47:39.338Z,9.13
2019-03-01T05:48:39.322Z,9.10
2019-03-01T05:49:39.312Z,9.23
2019-03-01T05:50:39.303Z,9.15
2019-03-01T05:51:39.292Z,9.15
2019-03-01T05:52:39.294Z,9.15
2019-03-01T05:53:39.267Z,9.13
2019-03-01T05:54:39.257Z,9.18
2019-03-01T05:55:39.246Z,9.12
2019-03-01T05:56:39.236Z,9.09
2019-03-01T05:57:39.226Z,9.18
2019-03-01T05:58:39.224Z,9.18
2019-03-01T05:59:39.205Z,9.10
2019-03-01T06:00:39.198Z,9.10
2019-03-01T06:01:39.181Z,9.12
2019-03-01T06:02:39.170Z,9.10
2019-03-01T06:03:39.159Z,9.05
2019-03-01T06:04:39.162Z,9.04
2019-03-01T06:05:39.136Z,9.06
2019-03-01T06:06:39.126Z,9.02
2019-03-01T06:07:39.114Z,9.09
2019-03-01T06:08:39.104Z,9.10
2019-03-01T06:09:39.103Z,9.02
2019-03-01T06:10:39.095Z,9.06
2019-03-01T06:11:39.070Z,9.02
2019-03-01T06:12:39.060Z,9.06
2019-03-01T06:13:39.060Z,9.01
2019-03-01T06:14:39.039Z,9.05
2019-03-01T06:15:39.028Z,8.97
2019-03-01T06:16:40.172Z,8.97
2019-03-01T06:17:39.006Z,8.97
2019-03-01T06:18:38.995Z,9.02
2019-03-01T06:19:38.984Z,8.99
2019-03-01T06:20:38.972Z,9.05
2019-03-01T06:21:38.961Z,8.99
2019-03-01T06:22:38.963Z,9.06
2019-03-01T06:23:38.939Z,9.01
2019-03-01T06:24:38.929Z,8.97
2019-03-01T06:25:38.918Z,8.96
2019-03-01T06:26:38.906Z,8.99
2019-03-01T06:27:38.896Z,9.01
2019-03-01T06:28:38.898Z,8.97
2019-03-01T06:29:38.873Z,9.01
2019-03-01T06:30:38.865Z,9.01
2019-03-01T06:31:38.852Z,9.04
2019-03-01T06:32:38.841Z,8.96
2019-03-01T06:33:38.830Z,9.01
2019-03-01T06:34:38.832Z,9.01
2019-03-01T06:35:38.808Z,8.97
2019-03-01T06:36:38.800Z,9.06
2019-03-01T06:37:38.787Z,9.04
2019-03-01T06:38:38.780Z,8.96
2019-03-01T06:39:38.765Z,9.04
2019-03-01T06:40:38.767Z,8.97
2019-03-01T06:41:38.742Z,8.97
2019-03-01T06:42:38.732Z,8.99
2019-03-01T06:43:38.721Z,9.04
2019-03-01T06:44:38.710Z,9.06
2019-03-01T06:45:38.711Z,8.97
2019-03-01T06:46:38.700Z,8.94
2019-03-01T06:47:38.677Z,8.96
2019-03-01T06:48:38.668Z,8.99
2019-03-01T06:49:38.656Z,9.12
2019-03-01T06:50:38.645Z,8.97
2019-03-01T06:51:38.639Z,8.96
2019-03-01T06:52:38.634Z,9.01
2019-03-01T06:53:38.611Z,9.09
2019-03-01T06:54:38.604Z,8.96
2019-03-01T06:55:38.591Z,9.06
2019-03-01T06:56:38.578Z,9.01
2019-03-01T06:57:38.567Z,8.99
2019-03-01T06:58:38.566Z,9.12
2019-03-01T06:59:38.545Z,9.06
2019-03-01T07:00:38.534Z,8.97
2019-03-01T07:01:38.524Z,8.94
2019-03-01T07:02:38.512Z,8.96
2019-03-01T07:03:38.502Z,8.94
2019-03-01T07:04:38.504Z,8.96
2019-03-01T07:05:38.480Z,8.96
2019-03-01T07:06:38.471Z,8.99
2019-03-01T07:07:38.458Z,8.96
2019-03-01T07:08:38.447Z,8.96
2019-03-01T07:09:38.437Z,8.94
2019-03-01T07:10:38.435Z,8.96
2019-03-01T07:11:38.417Z,8.88
2019-03-01T07:12:38.403Z,8.93
2019-03-01T07:13:38.392Z,8.90
2019-03-01T07:14:38.381Z,8.94
2019-03-01T07:15:38.370Z,8.94
2019-03-01T07:16:38.370Z,8.90
2019-03-01T07:17:38.363Z,8.93
2019-03-01T07:18:38.337Z,8.93
2019-03-01T07:19:38.326Z,8.93
2019-03-01T07:20:38.316Z,8.96
2019-03-01T07:21:38.309Z,8.94
2019-03-01T07:22:38.311Z,8.99
2019-03-01T07:23:38.285Z,8.99
2019-03-01T07:24:38.271Z,8.94
2019-03-01T07:25:38.260Z,8.94
2019-03-01T07:26:38.253Z,9.01
2019-03-01T07:27:38.243Z,8.91
2019-03-01T07:28:38.248Z,8.93
2019-03-01T07:29:38.219Z,8.96
2019-03-01T07:30:38.210Z,8.97
2019-03-01T07:31:38.194Z,8.94
2019-03-01T07:32:38.183Z,8.99
2019-03-01T07:33:38.173Z,8.99
2019-03-01T07:34:38.174Z,8.97
2019-03-01T07:35:38.150Z,9.01
2019-03-01T07:36:38.144Z,9.01
2019-03-01T07:37:38.129Z,8.97
2019-03-01T07:38:38.119Z,8.99
2019-03-01T07:39:38.105Z,8.93
2019-03-01T07:40:38.111Z,9.06
2019-03-01T07:41:38.084Z,9.02
2019-03-01T07:42:38.075Z,9.02
2019-03-01T07:43:38.095Z,9.04
2019-03-01T07:44:38.051Z,9.05
2019-03-01T07:45:38.041Z,9.02
2019-03-01T07:46:38.042Z,9.06
2019-03-01T07:47:38.020Z,9.10
2019-03-01T07:48:38.495Z,9.02
2019-03-01T07:49:37.997Z,9.04
2019-03-01T07:50:37.986Z,9.06
2019-03-01T07:51:37.975Z,9.12
2019-03-01T07:52:37.976Z,9.12
2019-03-01T07:53:41.788Z,9.09
2019-03-01T07:54:37.946Z,9.09
2019-03-01T07:55:37.933Z,9.04
2019-03-01T07:56:39.828Z,9.12
2019-03-01T07:57:37.911Z,9.09
2019-03-01T07:58:37.920Z,9.12
2019-03-01T07:59:39.155Z,9.06
2019-03-01T08:00:37.878Z,9.13
2019-03-01T08:01:37.868Z,9.05
2019-03-01T08:02:39.818Z,9.06
2019-03-01T08:03:37.848Z,9.09
2019-03-01T08:04:37.845Z,8.96
2019-03-01T08:05:39.588Z,9.01
2019-03-01T08:06:37.814Z,9.02
2019-03-01T08:07:37.802Z,8.93
2019-03-01T08:08:39.061Z,9.10
2019-03-01T08:09:37.792Z,9.01
2019-03-01T08:10:37.781Z,9.06
2019-03-01T08:11:37.759Z,9.06
2019-03-01T08:12:38.613Z,9.06
2019-03-01T08:13:37.738Z,9.15
2019-03-01T08:14:37.726Z,9.05
2019-03-01T08:15:40.684Z,9.12
2019-03-01T08:16:38.730Z,9.05
2019-03-01T08:17:37.695Z,9.12
2019-03-01T08:18:40.106Z,9.09
2019-03-01T08:19:38.672Z,9.05
2019-03-01T08:20:37.676Z,9.09
2019-03-01T08:21:37.652Z,9.06
2019-03-01T08:22:47.606Z,9.09
2019-03-01T08:23:38.629Z,9.06
2019-03-01T08:24:37.622Z,9.04
2019-03-01T08:25:37.609Z,9.12
2019-03-01T08:26:37.599Z,9.09
2019-03-01T08:27:37.587Z,9.05
2019-03-01T08:28:37.589Z,8.99
2019-03-01T08:29:37.566Z,8.97
2019-03-01T08:30:37.560Z,9.09
2019-03-01T08:31:37.544Z,9.09
2019-03-01T08:32:37.534Z,9.13
2019-03-01T08:33:42.393Z,9.13
2019-03-01T08:34:38.528Z,9.13
2019-03-01T08:35:37.502Z,9.13
2019-03-01T08:36:38.551Z,9.16
2019-03-01T08:37:37.480Z,9.20
2019-03-01T08:38:37.469Z,9.24
2019-03-01T08:39:39.742Z,9.16
2019-03-01T08:40:37.460Z,9.21
2019-03-01T08:41:37.438Z,9.20
2019-03-01T08:42:37.477Z,9.28
2019-03-01T08:43:37.423Z,9.21
2019-03-01T08:44:37.405Z,9.25
2019-03-01T08:45:37.395Z,9.27
2019-03-01T08:46:37.402Z,9.20
2019-03-01T08:47:37.373Z,9.20
2019-03-01T08:48:37.363Z,9.21
2019-03-01T08:49:37.350Z,9.25
2019-03-01T08:50:37.340Z,9.21
2019-03-01T08:51:37.332Z,9.23
2019-03-01T08:52:40.354Z,9.30
2019-03-01T08:53:37.309Z,9.32
2019-03-01T08:54:37.298Z,9.39
2019-03-01T08:55:38.937Z,9.39
2019-03-01T08:56:37.276Z,9.32
2019-03-01T08:57:44.011Z,9.34
2019-03-01T08:58:41.359Z,9.38
2019-03-01T08:59:37.245Z,9.34
2019-03-01T09:00:37.233Z,9.38
2019-03-01T09:01:37.223Z,9.45
2019-03-01T09:02:37.213Z,9.46
2019-03-01T09:03:37.205Z,9.45
2019-03-01T09:04:37.960Z,9.50
2019-03-01T09:05:37.180Z,9.42
2019-03-01T09:06:37.169Z,9.42
2019-03-01T09:07:37.160Z,9.38
2019-03-01T09:08:37.149Z,9.40
2019-03-01T09:09:37.138Z,9.42
2019-03-01T09:10:37.137Z,9.34
2019-03-01T09:11:37.121Z,9.31
2019-03-01T09:12:37.104Z,9.39
2019-03-01T09:13:37.097Z,9.38
2019-03-01T09:14:37.084Z,9.38
2019-03-01T09:15:37.073Z,9.39
2019-03-01T09:16:37.072Z,9.32
2019-03-01T09:17:37.056Z,9.34
2019-03-01T09:18:37.041Z,9.34
2019-03-01T09:19:37.031Z,9.27
2019-03-01T09:20:38.611Z,9.30
2019-03-01T09:21:37.009Z,9.24
2019-03-01T09:22:37.008Z,9.21
2019-03-01T09:23:36.987Z,9.25
2019-03-01T09:24:36.976Z,9.18
2019-03-01T09:25:36.965Z,9.20
2019-03-01T09:26:36.955Z,9.27
2019-03-01T09:27:36.955Z,9.21
2019-03-01T09:28:39.603Z,9.21
2019-03-01T09:29:41.750Z,9.10
2019-03-01T09:30:40.324Z,9.20
2019-03-01T09:31:37.901Z,9.15
2019-03-01T09:32:36.891Z,9.05
2019-03-01T09:33:36.881Z,8.83
2019-03-01T09:34:36.881Z,8.76
2019-03-01T09:35:39.635Z,8.57
2019-03-01T09:36:37.847Z,8.25
2019-03-01T09:37:36.838Z,7.85
2019-03-01T09:38:39.390Z,7.59
2019-03-01T09:39:37.826Z,7.40
2019-03-01T09:40:36.938Z,7.38
2019-03-01T09:41:40.508Z,7.24
2019-03-01T09:42:36.783Z,7.22
2019-03-01T09:43:36.773Z,7.15
2019-03-01T09:44:38.315Z,7.16
2019-03-01T09:45:36.897Z,7.22
2019-03-01T09:46:36.740Z,7.15
2019-03-01T09:47:37.802Z,7.13
2019-03-01T09:48:36.719Z,7.08
2019-03-01T09:49:36.707Z,7.07
2019-03-01T09:50:38.270Z,7.07
2019-03-01T09:51:36.697Z,6.99
2019-03-01T09:52:36.677Z,6.99
2019-03-01T09:53:36.665Z,6.83
2019-03-01T09:54:36.654Z,6.80
2019-03-01T09:55:37.573Z,6.89
2019-03-01T09:56:36.636Z,6.94
2019-03-01T09:57:36.631Z,6.94
2019-03-01T09:58:36.615Z,6.98
2019-03-01T09:59:36.601Z,6.99
2019-03-01T10:00:36.587Z,6.95
2019-03-01T10:01:36.577Z,6.95
2019-03-01T10:02:36.566Z,6.99
2019-03-01T10:03:36.566Z,6.97
2019-03-01T10:04:36.544Z,6.84
2019-03-01T10:05:36.533Z,6.77
2019-03-01T10:06:38.436Z,6.87
2019-03-01T10:07:36.512Z,6.81
2019-03-01T10:08:36.502Z,6.79
2019-03-01T10:09:36.511Z,6.68
2019-03-01T10:10:36.479Z,6.72
2019-03-01T10:11:36.468Z,6.71
2019-03-01T10:12:36.457Z,6.66
2019-03-01T10:13:36.452Z,6.68
2019-03-01T10:14:36.438Z,6.61
2019-03-01T10:15:36.436Z,6.58
2019-03-01T10:16:36.415Z,6.53
2019-03-01T10:17:36.404Z,6.50
2019-03-01T10:18:36.393Z,6.33
2019-03-01T10:19:36.383Z,6.28
2019-03-01T10:20:36.387Z,6.41
2019-03-01T10:21:36.372Z,6.38
2019-03-01T10:22:36.351Z,6.38
2019-03-01T10:23:36.340Z,6.38
2019-03-01T10:24:36.330Z,6.40
2019-03-01T10:25:36.320Z,6.41
2019-03-01T10:26:36.310Z,6.47
2019-03-01T10:27:36.348Z,6.38
2019-03-01T10:28:36.287Z,6.30
2019-03-01T10:29:36.276Z,6.30
2019-03-01T10:30:36.267Z,6.25
2019-03-01T10:31:36.256Z,6.14
2019-03-01T10:32:36.247Z,6.10
2019-03-01T10:33:36.246Z,6.00
2019-03-01T10:34:36.225Z,6.06
2019-03-01T10:35:36.218Z,6.09
2019-03-01T10:36:36.256Z,6.09
2019-03-01T10:37:36.194Z,5.96
2019-03-01T10:38:36.182Z,6.11
2019-03-01T10:39:36.189Z,6.13
2019-03-01T10:40:36.160Z,6.13
2019-03-01T10:41:36.150Z,6.21
2019-03-01T10:42:36.140Z,6.22
2019-03-01T10:43:36.129Z,6.28
2019-03-01T10:44:36.120Z,6.29
2019-03-01T10:45:36.124Z,6.16
2019-03-01T10:46:36.097Z,6.26
2019-03-01T10:47:36.087Z,6.22
2019-03-01T10:48:36.075Z,6.11
2019-03-01T10:49:36.064Z,6.25
2019-03-01T10:50:36.055Z,6.07
2019-03-01T10:51:36.058Z,6.06
2019-03-01T10:52:36.032Z,6.09
2019-03-01T10:53:36.025Z,6.06
2019-03-01T10:54:36.012Z,6.04
2019-03-01T10:55:36.047Z,6.07
2019-03-01T10:56:35.994Z,6.21
2019-03-01T10:57:35.995Z,6.11
2019-03-01T10:58:35.969Z,6.19
2019-03-01T10:59:35.957Z,6.26
2019-03-01T11:00:35.948Z,6.26
2019-03-01T11:01:35.938Z,6.28
2019-03-01T11:02:35.929Z,6.38
2019-03-01T11:03:35.934Z,6.32
2019-03-01T11:04:35.905Z,6.41
2019-03-01T11:05:35.895Z,6.40
2019-03-01T11:06:35.886Z,6.43
2019-03-01T11:07:35.873Z,6.43
2019-03-01T11:08:35.863Z,6.36
2019-03-01T11:09:35.869Z,6.46
2019-03-01T11:10:35.841Z,6.48
2019-03-01T11:11:35.831Z,6.48
2019-03-01T11:12:35.820Z,6.43
2019-03-01T11:13:35.809Z,6.40
2019-03-01T11:14:35.798Z,6.46
2019-03-01T11:15:35.803Z,6.51
2019-03-01T11:16:35.777Z,6.50
2019-03-01T11:17:35.772Z,6.63
2019-03-01T11:18:35.757Z,6.66
2019-03-01T11:19:35.746Z,6.66
2019-03-01T11:20:35.737Z,6.68
2019-03-01T11:21:35.735Z,6.72
2019-03-01T11:22:35.714Z,6.77
2019-03-01T11:23:35.708Z,6.80
2019-03-01T11:24:35.692Z,6.77
2019-03-01T11:25:35.682Z,6.77
2019-03-01T11:26:35.670Z,6.76
2019-03-01T11:27:35.670Z,6.71
2019-03-01T11:28:35.649Z,6.77
2019-03-01T11:29:35.638Z,6.76
2019-03-01T11:30:35.630Z,6.77
2019-03-01T11:31:35.618Z,6.66
2019-03-01T11:32:35.604Z,6.77
2019-03-01T11:33:35.604Z,6.69
2019-03-01T11:34:36.237Z,6.62
2019-03-01T11:35:35.572Z,6.59
2019-03-01T11:36:35.566Z,6.53
2019-03-01T11:37:35.551Z,6.41
2019-03-01T11:38:35.541Z,6.44
2019-03-01T11:39:35.541Z,6.36
2019-03-01T11:40:35.522Z,6.47
2019-03-01T11:41:35.509Z,6.50
2019-03-01T11:42:35.498Z,6.61
2019-03-01T11:43:35.488Z,6.61
2019-03-01T11:44:35.476Z,6.68
2019-03-01T11:45:35.479Z,6.69
2019-03-01T11:46:35.456Z,6.76
2019-03-01T11:47:35.446Z,6.80
2019-03-01T11:48:35.433Z,6.81
2019-03-01T11:49:35.422Z,6.83
2019-03-01T11:50:35.412Z,6.77
2019-03-01T11:51:35.416Z,6.89
2019-03-01T11:52:35.390Z,6.81
2019-03-01T11:53:35.379Z,6.83
2019-03-01T11:54:35.367Z,6.80
2019-03-01T11:55:35.357Z,6.76
2019-03-01T11:56:35.346Z,6.81
2019-03-01T11:57:35.347Z,6.77
2019-03-01T11:58:35.327Z,6.65
2019-03-01T11:59:35.315Z,6.63
2019-03-01T12:00:35.302Z,6.61
2019-03-01T12:01:35.292Z,6.62
2019-03-01T12:02:35.281Z,6.50
2019-03-01T12:03:35.288Z,6.53
2019-03-01T12:04:35.259Z,6.51
2019-03-01T12:05:35.257Z,6.54
2019-03-01T12:06:35.237Z,6.47
2019-03-01T12:07:35.228Z,6.44
2019-03-01T12:08:35.217Z,6.33
2019-03-01T12:09:35.215Z,6.36
2019-03-01T12:10:35.193Z,6.19
2019-03-01T12:11:35.182Z,6.19
2019-03-01T12:12:35.173Z,6.18
2019-03-01T12:13:35.161Z,6.13
2019-03-01T12:14:35.151Z,6.19
2019-03-01T12:15:35.150Z,6.26
2019-03-01T12:16:35.130Z,6.29
2019-03-01T12:17:35.119Z,6.35
2019-03-01T12:18:35.122Z,6.35
2019-03-01T12:19:35.097Z,6.30
2019-03-01T12:20:35.087Z,6.32
2019-03-01T12:21:35.087Z,6.35
2019-03-01T12:22:35.065Z,6.32
2019-03-01T12:23:35.056Z,6.35
2019-03-01T12:24:35.044Z,6.41
2019-03-01T12:25:35.034Z,6.41
2019-03-01T12:26:35.023Z,6.47
2019-03-01T12:27:35.024Z,6.40
2019-03-01T12:28:35.003Z,6.41
2019-03-01T12:29:34.991Z,6.41
2019-03-01T12:30:34.982Z,6.41
2019-03-01T12:31:34.970Z,6.36
2019-03-01T12:32:34.961Z,6.40
2019-03-01T12:33:34.974Z,6.41
2019-03-01T12:34:34.939Z,6.41
2019-03-01T12:35:34.928Z,6.38
2019-03-01T12:36:34.919Z,6.50
2019-03-01T12:37:34.908Z,6.53
2019-03-01T12:38:34.896Z,6.46
2019-03-01T12:39:34.897Z,6.44
2019-03-01T12:40:34.876Z,6.46
2019-03-01T12:41:34.865Z,6.46
2019-03-01T12:42:34.855Z,6.40
2019-03-01T12:43:34.844Z,6.46
2019-03-01T12:44:34.833Z,6.44
2019-03-01T12:45:34.836Z,6.33
2019-03-01T12:46:34.813Z,6.32
2019-03-01T12:47:34.802Z,6.29
2019-03-01T12:48:34.792Z,6.29
2019-03-01T12:49:34.783Z,6.38
2019-03-01T12:50:34.771Z,6.46
2019-03-01T12:51:34.769Z,6.43
2019-03-01T12:52:34.749Z,6.46
2019-03-01T12:53:34.744Z,6.43
2019-03-01T12:54:34.728Z,6.44
2019-03-01T12:55:34.719Z,6.43
2019-03-01T12:56:34.708Z,6.44
2019-03-01T12:57:34.709Z,6.48
2019-03-01T12:58:34.703Z,6.54
2019-03-01T12:59:34.675Z,6.47
2019-03-01T13:00:34.665Z,6.51
2019-03-01T13:01:34.657Z,6.41
2019-03-01T13:02:34.943Z,6.43
2019-03-01T13:03:34.643Z,6.44
2019-03-01T13:04:34.623Z,6.50
2019-03-01T13:05:34.614Z,6.50
2019-03-01T13:06:35.462Z,6.44
2019-03-01T13:07:34.590Z,6.48
2019-03-01T13:08:34.579Z,6.44
2019-03-01T13:09:34.582Z,6.50
2019-03-01T13:10:36.917Z,6.62
2019-03-01T13:11:35.547Z,6.63
2019-03-01T13:12:34.538Z,6.59
2019-03-01T13:13:38.015Z,6.53
2019-03-01T13:14:36.759Z,6.59
2019-03-01T13:15:34.516Z,6.61
2019-03-01T13:16:34.499Z,6.62
2019-03-01T13:17:37.297Z,6.61
2019-03-01T13:18:34.475Z,6.63